createdAt,value
2022-11-12T00:01:43.573Z,22.79
2022-11-12T00:04:28.933Z,22.98
2022-11-12T00:07:14.108Z,22.32
2022-11-12T00:09:59.528Z,22.27
2022-11-12T00:12:45.262Z,21.80
2022-11-12T00:15:30.617Z,22.14
2022-11-12T00:18:16.210Z,22.63
2022-11-12T00:21:01.534Z,22.64
2022-11-12T00:23:46.633Z,23.29
2022-11-12T00:26:31.969Z,25.82
2022-11-12T00:29:17.255Z,27.11
2022-11-12T00:32:02.930Z,25.09
2022-11-12T00:34:47.923Z,27.05
2022-11-12T00:37:33.478Z,24.16
2022-11-12T00:40:18.805Z,25.73
2022-11-12T00:43:04.216Z,23.78
2022-11-12T00:45:49.464Z,23.54
2022-11-12T00:48:34.909Z,24.02
2022-11-12T00:51:20.348Z,23.67
2022-11-12T00:54:06.155Z,22.60
2022-11-12T00:56:51.566Z,23.16
2022-11-12T00:59:36.750Z,26.00
2022-11-12T01:02:22.308Z,25.14
2022-11-12T01:05:07.934Z,24.51
2022-11-12T01:07:56.049Z,25.34
2022-11-12T01:10:42.073Z,26.72
2022-11-12T01:13:27.446Z,26.34
2022-11-12T01:16:19.943Z,26.29
2022-11-12T01:19:08.149Z,27.33
2022-11-12T01:21:54.099Z,27.14
2022-11-12T01:24:40.649Z,24.50
2022-11-12T01:27:26.055Z,23.49
2022-11-12T01:30:12.008Z,22.98
2022-11-12T01:32:57.189Z,24.87
2022-11-12T01:35:42.632Z,23.68
2022-11-12T01:38:28.465Z,24.71
2022-11-12T01:41:17.255Z,24.46
2022-11-12T01:44:29.760Z,25.27
2022-11-12T01:47:23.533Z,23.04
2022-11-12T01:50:33.955Z,23.18
2022-11-12T01:53:21.269Z,23.52
2022-11-12T01:56:07.803Z,22.66
2022-11-12T01:59:00.762Z,21.62
2022-11-12T02:01:46.114Z,25.16
2022-11-12T02:04:33.623Z,25.82
2022-11-12T02:07:21.673Z,24.09
2022-11-12T02:10:09.465Z,22.84
2022-11-12T02:13:14.601Z,23.31
2022-11-12T02:16:00.119Z,26.27
2022-11-12T02:18:45.264Z,26.38
2022-11-12T02:21:31.246Z,27.54
2022-11-12T02:24:16.724Z,23.70
2022-11-12T02:27:02.359Z,22.46
2022-11-12T02:29:47.765Z,25.79
2022-11-12T02:32:33.080Z,24.60
2022-11-12T02:35:18.408Z,23.39
2022-11-12T02:38:04.187Z,23.22
2022-11-12T02:40:49.537Z,22.42
2022-11-12T02:43:35.002Z,22.62
2022-11-12T02:46:20.462Z,23.10
2022-11-12T02:49:05.601Z,25.25
2022-11-12T02:51:50.962Z,24.78
2022-11-12T02:54:36.293Z,25.71
2022-11-12T02:57:21.801Z,27.14
2022-11-12T03:00:11.504Z,24.52
2022-11-12T03:02:59.508Z,24.34
2022-11-12T03:05:46.569Z,24.40
2022-11-12T03:08:31.843Z,25.17
2022-11-12T03:11:18.028Z,23.92
2022-11-12T03:14:03.571Z,23.54
2022-11-12T03:16:49.017Z,23.60
2022-11-12T03:19:34.495Z,24.18
2022-11-12T03:22:19.803Z,21.49
2022-11-12T03:25:07.002Z,21.52
2022-11-12T03:27:59.219Z,23.36
2022-11-12T03:30:45.430Z,25.16
2022-11-12T03:33:30.655Z,25.51
2022-11-12T03:36:16.270Z,23.86
2022-11-12T03:39:02.217Z,23.57
2022-11-12T03:41:47.783Z,24.44
2022-11-12T03:44:33.513Z,22.39
2022-11-12T03:47:18.421Z,22.53
2022-11-12T03:50:03.949Z,22.53
2022-11-12T03:52:52.033Z,22.10
2022-11-12T03:55:37.484Z,22.41
2022-11-12T03:58:22.804Z,22.98
2022-11-12T04:01:07.993Z,24.93
2022-11-12T04:03:53.327Z,24.18
2022-11-12T04:06:57.270Z,23.52
2022-11-12T04:09:42.417Z,23.74
2022-11-12T04:12:46.271Z,21.76
2022-11-12T04:15:31.763Z,22.67
2022-11-12T04:18:35.405Z,27.45
2022-11-12T04:21:50.513Z,24.49
2022-11-12T04:24:59.252Z,24.44
2022-11-12T04:27:44.660Z,24.94
2022-11-12T04:30:29.827Z,24.83
2022-11-12T04:33:15.265Z,25.30
2022-11-12T04:36:00.505Z,23.42
2022-11-12T04:38:46.045Z,25.26
2022-11-12T04:41:51.603Z,26.49
2022-11-12T04:44:55.476Z,25.38
2022-11-12T04:47:45.374Z,23.52
2022-11-12T04:50:30.419Z,21.48
2022-11-12T04:53:15.912Z,22.37
2022-11-12T04:56:01.182Z,21.39
2022-11-12T04:58:46.765Z,21.88
2022-11-12T05:01:31.981Z,22.51
2022-11-12T05:04:17.934Z,22.32
2022-11-12T05:07:03.436Z,23.68
2022-11-12T05:09:48.828Z,23.36
2022-11-12T05:12:34.119Z,22.35
2022-11-12T05:15:19.614Z,21.73
2022-11-12T05:18:04.615Z,22.17
2022-11-12T05:20:52.770Z,21.61
2022-11-12T05:23:37.797Z,22.64
2022-11-12T05:26:23.034Z,22.67
2022-11-12T05:29:09.045Z,23.59
2022-11-12T05:31:55.466Z,23.20
2022-11-12T05:34:41.187Z,21.54
2022-11-12T05:37:26.708Z,21.36
2022-11-12T05:40:13.220Z,21.75
2022-11-12T05:42:58.440Z,21.21
2022-11-12T05:45:44.534Z,21.96
2022-11-12T05:48:30.227Z,21.90
2022-11-12T05:51:15.689Z,22.07
2022-11-12T05:54:01.846Z,22.31
2022-11-12T05:56:47.439Z,21.76
2022-11-12T05:59:32.884Z,21.65
2022-11-12T06:02:18.368Z,21.98
2022-11-12T06:05:03.965Z,22.97
2022-11-12T06:07:49.390Z,22.24
2022-11-12T06:10:35.376Z,21.69
2022-11-12T06:13:23.012Z,22.17
2022-11-12T06:16:08.942Z,22.04
2022-11-12T06:18:54.014Z,22.48
2022-11-12T06:21:39.375Z,23.86
2022-11-12T06:24:26.109Z,22.41
2022-11-12T06:27:13.629Z,22.07
2022-11-12T06:29:59.815Z,22.77
2022-11-12T06:32:51.412Z,22.83
2022-11-12T06:35:41.700Z,22.04
2022-11-12T06:38:30.472Z,22.85
2022-11-12T06:41:16.081Z,21.83
2022-11-12T06:44:01.111Z,21.33
2022-11-12T06:46:46.604Z,21.15
2022-11-12T06:49:32.279Z,22.53
2022-11-12T06:52:17.646Z,21.66
2022-11-12T06:55:03.321Z,21.33
2022-11-12T06:57:52.718Z,22.19
2022-11-12T07:00:37.910Z,21.42
2022-11-12T07:03:23.110Z,21.80
2022-11-12T07:06:12.093Z,21.63
2022-11-12T07:08:57.912Z,21.44
2022-11-12T07:11:44.103Z,21.38
2022-11-12T07:14:30.193Z,20.86
2022-11-12T07:17:15.489Z,21.59
2022-11-12T07:20:03.909Z,20.56
2022-11-12T07:22:49.790Z,20.00
2022-11-12T07:25:34.933Z,19.37
2022-11-12T07:28:20.225Z,20.46
2022-11-12T07:31:29.274Z,19.22
2022-11-12T07:34:15.276Z,20.16
2022-11-12T07:37:00.658Z,20.87
2022-11-12T07:39:46.104Z,19.40
2022-11-12T07:42:35.339Z,18.28
2022-11-12T07:45:20.232Z,18.20
2022-11-12T07:48:06.089Z,17.03
2022-11-12T07:50:51.560Z,17.07
2022-11-12T07:53:37.738Z,17.15
2022-11-12T07:56:25.740Z,17.84
2022-11-12T07:59:11.577Z,17.70
2022-11-12T08:01:56.881Z,17.25
2022-11-12T08:04:42.668Z,18.28
2022-11-12T08:07:28.567Z,18.08
2022-11-12T08:10:14.618Z,19.35
2022-11-12T08:13:00.798Z,18.91
2022-11-12T08:15:51.063Z,18.48
2022-11-12T08:18:37.829Z,19.46
2022-11-12T08:21:23.517Z,21.58
2022-11-12T08:24:09.037Z,20.88
2022-11-12T08:26:54.200Z,19.61
2022-11-12T08:29:39.796Z,20.51
2022-11-12T08:32:25.284Z,19.49
2022-11-12T08:35:10.769Z,22.62
2022-11-12T08:38:02.322Z,22.71
2022-11-12T08:40:48.000Z,23.10
2022-11-12T08:43:33.989Z,22.63
2022-11-12T08:46:19.419Z,21.87
2022-11-12T08:49:04.622Z,22.89
2022-11-12T08:51:50.357Z,21.41
2022-11-12T08:54:35.757Z,18.42
2022-11-12T08:57:21.053Z,21.09
2022-11-12T09:00:07.117Z,20.29
2022-11-12T09:02:52.382Z,19.67
2022-11-12T09:05:37.767Z,19.42
2022-11-12T09:08:25.553Z,17.79
2022-11-12T09:11:11.685Z,18.09
2022-11-12T09:13:56.942Z,20.58
2022-11-12T09:16:42.172Z,20.91
2022-11-12T09:19:27.627Z,18.56
2022-11-12T09:22:13.026Z,16.03
2022-11-12T09:24:59.021Z,18.19
2022-11-12T09:27:48.478Z,18.34
2022-11-12T09:30:35.553Z,17.95
2022-11-12T09:33:29.131Z,17.51
2022-11-12T09:36:17.649Z,17.67
2022-11-12T09:39:03.172Z,18.40
2022-11-12T09:41:48.122Z,18.27
2022-11-12T09:44:37.700Z,17.88
2022-11-12T09:47:57.746Z,18.62
2022-11-12T09:50:54.130Z,20.49
2022-11-12T09:54:00.933Z,18.47
2022-11-12T09:56:49.221Z,19.96
2022-11-12T09:59:39.943Z,18.80
2022-11-12T10:02:37.642Z,19.02
2022-11-12T10:05:25.946Z,19.57
2022-11-12T10:08:30.007Z,17.54
2022-11-12T10:11:32.210Z,19.30
2022-11-12T10:14:52.876Z,19.52
2022-11-12T10:17:44.601Z,17.40
2022-11-12T10:20:42.701Z,17.75
2022-11-12T10:23:36.830Z,18.96
2022-11-12T10:26:25.788Z,21.01
2022-11-12T10:29:11.450Z,21.37
2022-11-12T10:31:56.679Z,19.61
2022-11-12T10:34:42.394Z,20.43
2022-11-12T10:37:42.642Z,22.42
2022-11-12T10:40:31.192Z,20.00
2022-11-12T10:43:17.222Z,19.02
2022-11-12T10:46:36.440Z,19.34
2022-11-12T10:49:24.748Z,19.31
2022-11-12T10:52:24.792Z,18.79
2022-11-12T10:55:18.111Z,19.03
2022-11-12T10:58:19.729Z,21.90
2022-11-12T11:01:15.196Z,20.19
2022-11-12T11:04:01.550Z,17.24
2022-11-12T11:06:47.776Z,17.45
2022-11-12T11:09:34.663Z,18.62
2022-11-12T11:12:28.458Z,19.96
2022-11-12T11:15:22.943Z,17.84
2022-11-12T11:18:12.795Z,18.77
2022-11-12T11:21:19.767Z,19.30
2022-11-12T11:24:16.735Z,20.70
2022-11-12T11:27:20.748Z,18.87
2022-11-12T11:30:13.081Z,17.84
2022-11-12T11:33:19.878Z,18.99
2022-11-12T11:36:44.386Z,19.49
2022-11-12T11:39:41.089Z,20.57
2022-11-12T11:42:47.915Z,20.27
2022-11-12T11:45:33.401Z,21.07
2022-11-12T11:48:27.018Z,20.48
2022-11-12T11:51:32.001Z,20.09
2022-11-12T11:54:23.526Z,20.78
2022-11-12T11:57:15.636Z,20.19
2022-11-12T12:00:23.021Z,21.17
2022-11-12T12:03:21.993Z,19.49
2022-11-12T12:06:19.764Z,18.05
2022-11-12T12:09:05.046Z,20.36
2022-11-12T12:11:50.390Z,21.01
2022-11-12T12:14:47.932Z,18.24
2022-11-12T12:18:03.971Z,17.67
2022-11-12T12:21:09.592Z,18.82
2022-11-12T12:24:06.122Z,18.10
2022-11-12T12:26:56.610Z,18.20
2022-11-12T12:29:50.093Z,16.85
2022-11-12T12:32:57.077Z,19.51
2022-11-12T12:36:02.367Z,20.23
2022-11-12T12:38:56.583Z,19.55
2022-11-12T12:42:03.807Z,18.08
2022-11-12T12:45:01.018Z,18.37
2022-11-12T12:47:48.848Z,18.87
2022-11-12T12:50:38.346Z,18.65
2022-11-12T12:53:32.877Z,18.63
2022-11-12T12:56:24.272Z,18.35
2022-11-12T12:59:20.378Z,18.24
2022-11-12T13:02:21.405Z,18.47
2022-11-12T13:05:21.797Z,18.24
2022-11-12T13:08:19.019Z,18.13
2022-11-12T13:11:05.602Z,21.46
2022-11-12T13:13:51.581Z,20.18
2022-11-12T13:17:01.482Z,20.58
2022-11-12T13:19:59.059Z,22.21
2022-11-12T13:22:44.296Z,21.72
2022-11-12T13:25:32.756Z,21.81
2022-11-12T13:28:19.199Z,20.56
2022-11-12T13:31:23.881Z,22.92
2022-11-12T13:34:33.265Z,21.66
2022-11-12T13:37:21.617Z,21.28
2022-11-12T13:40:14.707Z,19.75
2022-11-12T13:43:13.337Z,21.39
2022-11-12T13:46:10.695Z,22.27
2022-11-12T13:48:58.715Z,20.36
2022-11-12T13:51:47.099Z,18.56
2022-11-12T13:54:38.099Z,21.62
2022-11-12T13:57:26.174Z,20.11
2022-11-12T14:00:21.946Z,18.65
2022-11-12T14:03:08.324Z,18.77
2022-11-12T14:05:54.604Z,19.94
2022-11-12T14:08:46.035Z,22.34
2022-11-12T14:11:58.540Z,20.34
2022-11-12T14:15:02.173Z,19.47
2022-11-12T14:18:11.248Z,19.02
2022-11-12T14:20:56.669Z,18.81
2022-11-12T14:23:47.211Z,21.32
2022-11-12T14:26:38.874Z,19.83
2022-11-12T14:29:24.158Z,21.25
2022-11-12T14:32:09.785Z,19.33
2022-11-12T14:34:54.730Z,20.04
2022-11-12T14:37:43.852Z,19.44
2022-11-12T14:40:33.856Z,19.15
2022-11-12T14:43:27.597Z,20.72
2022-11-12T14:46:45.927Z,20.55
2022-11-12T14:49:43.939Z,21.26
2022-11-12T14:52:40.742Z,21.23
2022-11-12T14:55:36.347Z,20.92
2022-11-12T14:58:23.683Z,20.72
2022-11-12T15:04:45.485Z,22.71
2022-11-12T15:07:50.529Z,21.25
2022-11-12T15:10:44.504Z,21.73
2022-11-12T15:13:38.720Z,20.84
2022-11-12T15:16:28.427Z,20.65
2022-11-12T15:19:23.933Z,19.74
2022-11-12T15:22:21.095Z,21.67
2022-11-12T15:25:30.932Z,21.31
2022-11-12T15:28:24.878Z,20.58
2022-11-12T15:31:21.898Z,22.15
2022-11-12T15:34:26.096Z,21.26
2022-11-12T15:37:18.002Z,21.28
2022-11-12T15:40:12.793Z,22.13
2022-11-12T15:42:59.130Z,22.42
2022-11-12T15:45:49.587Z,21.53
2022-11-12T15:48:35.650Z,21.87
2022-11-12T15:51:21.148Z,20.79
2022-11-12T15:54:06.302Z,22.02
2022-11-12T15:56:52.073Z,21.69
2022-11-12T15:59:37.229Z,20.84
2022-11-12T16:02:23.004Z,20.87
2022-11-12T16:05:19.825Z,21.05
2022-11-12T16:08:06.208Z,22.50
2022-11-12T16:10:51.554Z,22.55
2022-11-12T16:13:36.976Z,21.35
2022-11-12T16:16:22.412Z,22.21
2022-11-12T16:19:18.341Z,22.49
2022-11-12T16:22:12.276Z,23.92
2022-11-12T16:24:57.887Z,21.75
2022-11-12T16:27:43.609Z,20.52
2022-11-12T16:30:33.557Z,21.29
2022-11-12T16:33:20.230Z,21.76
2022-11-12T16:36:15.248Z,21.79
2022-11-12T16:39:00.641Z,21.01
2022-11-12T16:41:45.932Z,22.40
2022-11-12T16:44:31.193Z,22.77
2022-11-12T16:47:16.553Z,22.05
2022-11-12T16:50:01.929Z,22.69
2022-11-12T16:52:48.777Z,21.42
2022-11-12T16:55:35.030Z,22.08
2022-11-12T16:58:20.516Z,22.88
2022-11-12T17:01:06.729Z,23.97
2022-11-12T17:03:53.703Z,24.89
2022-11-12T17:06:41.083Z,22.41
2022-11-12T17:09:26.403Z,21.11
2022-11-12T17:12:11.969Z,21.03
2022-11-12T17:14:57.076Z,21.61
2022-11-12T17:17:42.546Z,21.46
2022-11-12T17:20:27.723Z,21.67
2022-11-12T17:23:13.201Z,21.41
2022-11-12T17:26:04.050Z,22.75
2022-11-12T17:28:55.552Z,20.75
2022-11-12T17:31:49.203Z,21.78
2022-11-12T17:34:35.923Z,21.52
2022-11-12T17:37:20.923Z,21.66
2022-11-12T17:40:07.134Z,21.23
2022-11-12T17:42:53.861Z,21.89
2022-11-12T17:45:39.065Z,21.93
2022-11-12T17:48:24.960Z,21.62
2022-11-12T17:51:12.927Z,21.30
2022-11-12T17:53:58.106Z,21.36
2022-11-12T17:56:43.606Z,21.47
2022-11-12T17:59:29.009Z,21.90
2022-11-12T18:02:14.537Z,21.92
2022-11-12T18:04:59.701Z,22.42
2022-11-12T18:07:45.071Z,22.17
2022-11-12T18:10:30.253Z,22.57
2022-11-12T18:13:15.731Z,22.98
2022-11-12T18:16:01.383Z,24.56
2022-11-12T18:18:47.546Z,22.55
2022-11-12T18:21:32.755Z,21.94
2022-11-12T18:24:18.144Z,21.79
2022-11-12T18:27:03.783Z,22.16
2022-11-12T18:29:49.958Z,22.67
2022-11-12T18:32:36.369Z,22.25
2022-11-12T18:35:29.510Z,22.55
2022-11-12T18:38:15.340Z,22.58
2022-11-12T18:41:08.438Z,22.55
2022-11-12T18:43:55.198Z,23.18
2022-11-12T18:46:40.656Z,22.86
2022-11-12T18:49:26.114Z,22.60
2022-11-12T18:52:11.439Z,22.84
2022-11-12T18:54:56.766Z,22.33
2022-11-12T18:57:42.034Z,22.78
2022-11-12T19:00:27.466Z,22.04
2022-11-12T19:03:13.369Z,23.20
2022-11-12T19:06:00.045Z,22.40
2022-11-12T19:08:45.208Z,21.91
2022-11-12T19:11:30.426Z,22.33
2022-11-12T19:14:15.824Z,22.29
2022-11-12T19:17:01.332Z,22.37
2022-11-12T19:19:46.575Z,22.48
2022-11-12T19:22:31.907Z,22.65
2022-11-12T19:25:17.329Z,22.54
2022-11-12T19:28:02.756Z,22.53
2022-11-12T19:30:48.160Z,22.78
2022-11-12T19:33:34.488Z,22.63
2022-11-12T19:36:22.179Z,22.37
2022-11-12T19:39:08.055Z,23.28
2022-11-12T19:41:53.612Z,22.74
2022-11-12T19:44:38.906Z,23.39
2022-11-12T19:47:24.680Z,23.71
2022-11-12T19:50:10.202Z,23.63
2022-11-12T19:52:55.878Z,22.98
2022-11-12T19:55:41.327Z,23.83
2022-11-12T19:58:27.755Z,22.61
2022-11-12T20:01:16.371Z,22.65
2022-11-12T20:04:01.680Z,23.33
2022-11-12T20:06:47.115Z,23.13
2022-11-12T20:09:32.388Z,23.24
2022-11-12T20:12:17.661Z,22.64
2022-11-12T20:15:03.074Z,23.14
2022-11-12T20:17:48.400Z,22.30
2022-11-12T20:20:33.838Z,22.51
2022-11-12T20:23:19.374Z,22.72
2022-11-12T20:26:11.102Z,22.34
2022-11-12T20:28:56.668Z,22.37
2022-11-12T20:31:42.129Z,22.64
2022-11-12T20:34:27.556Z,23.50
2022-11-12T20:37:12.949Z,23.64
2022-11-12T20:39:58.295Z,23.44
2022-11-12T20:42:43.927Z,23.21
2022-11-12T20:45:29.508Z,23.26
2022-11-12T20:48:14.889Z,23.79
2022-11-12T20:51:26.618Z,23.68
2022-11-12T20:54:12.060Z,23.67
2022-11-12T20:56:57.301Z,23.67
2022-11-12T20:59:43.283Z,23.78
2022-11-12T21:02:28.597Z,24.09
2022-11-12T21:05:14.118Z,24.64
2022-11-12T21:07:59.631Z,24.99
2022-11-12T21:10:49.137Z,25.53
2022-11-12T21:13:36.599Z,28.06
2022-11-12T21:16:22.940Z,25.40
2022-11-12T21:19:08.423Z,25.16
2022-11-12T21:21:54.549Z,25.47
2022-11-12T21:24:40.730Z,24.81
2022-11-12T21:27:25.961Z,25.17
2022-11-12T21:30:11.977Z,27.06
2022-11-12T21:32:57.661Z,25.07
2022-11-12T21:35:43.317Z,25.69
2022-11-12T21:38:29.753Z,24.67
2022-11-12T21:41:18.786Z,24.99
2022-11-12T21:44:04.004Z,26.01
2022-11-12T21:46:49.447Z,25.60
2022-11-12T21:49:34.912Z,24.60
2022-11-12T21:52:20.202Z,25.54
2022-11-12T21:55:07.150Z,24.54
2022-11-12T21:57:53.460Z,24.04
2022-11-12T22:00:42.006Z,24.21
2022-11-12T22:03:31.075Z,23.68
2022-11-12T22:06:17.286Z,25.36
2022-11-12T22:09:02.947Z,24.33
2022-11-12T22:11:48.299Z,24.09
2022-11-12T22:14:33.541Z,23.56
2022-11-12T22:17:18.905Z,24.23
2022-11-12T22:20:04.540Z,24.54
2022-11-12T22:22:52.654Z,25.48
2022-11-12T22:25:38.966Z,24.56
2022-11-12T22:28:25.231Z,25.64
2022-11-12T22:31:13.381Z,25.89
2022-11-12T22:34:00.453Z,25.33
2022-11-12T22:36:46.144Z,24.52
2022-11-12T22:39:31.237Z,25.04
2022-11-12T22:42:16.917Z,24.96
2022-11-12T22:45:01.928Z,23.97
2022-11-12T22:47:47.500Z,23.19
2022-11-12T22:50:32.763Z,22.83
2022-11-12T22:53:17.941Z,23.49
2022-11-12T22:56:05.571Z,23.56
2022-11-12T22:58:51.768Z,25.31
2022-11-12T23:01:36.920Z,25.00
2022-11-12T23:04:24.466Z,24.69
2022-11-12T23:07:09.935Z,23.84
2022-11-12T23:09:55.544Z,23.99
2022-11-12T23:12:41.347Z,25.33
2022-11-12T23:15:31.205Z,23.87
2022-11-12T23:18:16.513Z,23.52
2022-11-12T23:21:11.425Z,23.91
2022-11-12T23:23:58.268Z,23.21
2022-11-12T23:26:43.491Z,23.28
2022-11-12T23:29:28.685Z,23.64
2022-11-12T23:32:13.996Z,24.60
2022-11-12T23:34:59.306Z,25.18
2022-11-12T23:37:44.745Z,24.17
2022-11-12T23:40:31.304Z,24.21
2022-11-12T23:43:16.875Z,23.88
2022-11-12T23:46:02.374Z,25.09
2022-11-12T23:48:48.356Z,24.92
2022-11-12T23:51:33.737Z,23.91
2022-11-12T23:54:18.863Z,25.88
2022-11-12T23:57:04.258Z,26.01
2022-11-12T23:59:49.632Z,26.71
